createdAt,value
2024-01-07T00:02:07.525Z,99048.94
2024-01-07T00:04:41.270Z,99049.41
2024-01-07T00:07:09.898Z,99044.72
2024-01-07T00:09:45.831Z,99038.19
2024-01-07T00:12:16.673Z,99043.44
2024-01-07T00:14:50.079Z,99044.63
2024-01-07T00:17:31.710Z,99045.91
2024-01-07T00:20:16.793Z,99042.03
2024-01-07T00:22:52.340Z,99044.84
2024-01-07T00:25:34.029Z,99040.47
2024-01-07T00:28:03.005Z,99046.06
2024-01-07T00:30:39.326Z,99049.69
2024-01-07T00:33:13.285Z,99047.28
2024-01-07T00:35:51.410Z,99057.72
2024-01-07T00:38:33.696Z,99067.81
2024-01-07T00:41:12.929Z,99061.03
2024-01-07T00:43:45.695Z,99059.44
2024-01-07T00:46:24.049Z,99068.31
2024-01-07T00:49:05.829Z,99062.69
2024-01-07T00:51:43.199Z,99069.09
2024-01-07T00:54:19.182Z,99068.31
2024-01-07T00:56:54.951Z,99068.66
2024-01-07T00:59:32.435Z,99069.44
2024-01-07T01:02:05.448Z,99071.06
2024-01-07T01:04:40.354Z,99074.84
2024-01-07T01:07:16.803Z,99081.69
2024-01-07T01:09:50.792Z,99079.25
2024-01-07T01:12:27.482Z,99077.53
2024-01-07T01:15:11.629Z,99084.00
2024-01-07T01:17:39.201Z,99093.97
2024-01-07T01:20:11.067Z,99089.25
2024-01-07T01:22:47.437Z,99096.47
2024-01-07T01:25:23.551Z,99089.69
2024-01-07T01:27:59.851Z,99084.66
2024-01-07T01:30:33.310Z,99088.25
2024-01-07T01:33:15.477Z,99090.13
2024-01-07T01:35:48.582Z,99095.16
2024-01-07T01:38:24.423Z,99093.94
2024-01-07T01:40:58.063Z,99096.34
2024-01-07T01:43:37.178Z,99096.34
2024-01-07T01:46:08.394Z,99104.41
2024-01-07T01:48:38.488Z,99100.59
2024-01-07T01:51:16.779Z,99102.25
2024-01-07T01:53:52.213Z,99100.25
2024-01-07T01:56:32.290Z,99104.31
2024-01-07T01:59:12.455Z,99105.34
2024-01-07T02:01:51.133Z,99104.03
2024-01-07T02:04:32.668Z,99108.00
2024-01-07T02:07:06.093Z,99106.31
2024-01-07T02:09:43.886Z,99093.44
2024-01-07T02:12:23.946Z,99103.09
2024-01-07T02:15:05.295Z,99105.16
2024-01-07T02:17:38.222Z,99102.03
2024-01-07T02:20:15.527Z,99099.81
2024-01-07T02:22:53.859Z,99099.59
2024-01-07T02:25:24.403Z,99098.63
2024-01-07T02:27:55.508Z,99090.66
2024-01-07T02:30:37.238Z,99085.28
2024-01-07T02:33:16.615Z,99090.13
2024-01-07T02:35:44.806Z,99075.72
2024-01-07T02:38:20.566Z,99079.38
2024-01-07T02:41:10.841Z,99080.28
2024-01-07T02:43:43.921Z,99079.91
2024-01-07T02:46:18.154Z,99085.66
2024-01-07T02:48:58.180Z,99080.22
2024-01-07T02:51:36.257Z,99078.59
2024-01-07T02:54:12.612Z,99076.16
2024-01-07T02:56:57.520Z,99074.66
2024-01-07T02:59:30.687Z,99079.13
2024-01-07T03:02:00.754Z,99073.59
2024-01-07T03:04:37.496Z,99078.34
2024-01-07T03:07:14.349Z,99071.44
2024-01-07T03:09:49.969Z,99062.81
2024-01-07T03:12:19.919Z,99058.78
2024-01-07T03:14:59.914Z,99063.06
2024-01-07T03:17:35.720Z,99069.63
2024-01-07T03:20:09.448Z,99058.22
2024-01-07T03:22:48.345Z,99061.28
2024-01-07T03:25:27.809Z,99054.09
2024-01-07T03:28:10.862Z,99054.94
2024-01-07T03:30:49.678Z,99068.19
2024-01-07T03:33:25.408Z,99065.63
2024-01-07T03:35:55.987Z,99059.94
2024-01-07T03:38:30.513Z,99063.00
2024-01-07T03:41:02.533Z,99063.53
2024-01-07T03:43:35.941Z,99058.75
2024-01-07T03:46:04.890Z,99066.56
2024-01-07T03:48:38.530Z,99064.00
2024-01-07T03:51:12.113Z,99071.25
2024-01-07T03:53:43.531Z,99083.25
2024-01-07T03:56:19.285Z,99077.78
2024-01-07T03:58:59.500Z,99070.13
2024-01-07T04:01:32.712Z,99077.50
2024-01-07T04:04:01.637Z,99068.78
2024-01-07T04:06:37.622Z,99083.19
2024-01-07T04:09:11.381Z,99077.25
2024-01-07T04:11:45.130Z,99082.63
2024-01-07T04:14:23.708Z,99087.50
2024-01-07T04:16:54.315Z,99100.69
2024-01-07T04:19:30.412Z,99094.84
2024-01-07T04:22:06.418Z,99087.94
2024-01-07T04:24:42.904Z,99102.59
2024-01-07T04:27:15.819Z,99098.56
2024-01-07T04:29:49.077Z,99098.56
2024-01-07T04:32:25.454Z,99101.88
2024-01-07T04:35:01.362Z,99102.88
2024-01-07T04:37:36.263Z,99102.88
2024-01-07T04:40:12.503Z,99102.72
2024-01-07T04:42:48.964Z,99107.72
2024-01-07T04:45:30.419Z,99116.94
2024-01-07T04:48:06.103Z,99107.75
2024-01-07T04:50:38.593Z,99109.84
2024-01-07T04:53:09.761Z,99119.88
2024-01-07T04:55:49.064Z,99103.56
2024-01-07T04:58:24.764Z,99107.31
2024-01-07T05:00:57.966Z,99114.16
2024-01-07T05:03:37.055Z,99115.22
2024-01-07T05:06:11.129Z,99118.16
2024-01-07T05:08:50.819Z,99120.88
2024-01-07T05:11:24.195Z,99109.59
2024-01-07T05:14:01.035Z,99119.72
2024-01-07T05:16:36.667Z,99116.66
2024-01-07T05:19:11.952Z,99116.59
2024-01-07T05:21:42.324Z,99123.09
2024-01-07T05:24:17.805Z,99119.09
2024-01-07T05:26:59.602Z,99124.56
2024-01-07T05:29:34.905Z,99125.28
2024-01-07T05:32:08.410Z,99131.03
2024-01-07T05:34:44.169Z,99133.00
2024-01-07T05:37:21.622Z,99127.78
2024-01-07T05:39:57.493Z,99131.72
2024-01-07T05:42:31.636Z,99139.00
2024-01-07T05:45:09.987Z,99142.34
2024-01-07T05:47:42.590Z,99140.38
2024-01-07T05:50:16.706Z,99141.19
2024-01-07T05:52:59.884Z,99145.66
2024-01-07T05:55:36.063Z,99143.03
2024-01-07T05:58:11.253Z,99142.69
2024-01-07T06:00:57.272Z,99151.00
2024-01-07T06:03:34.915Z,99149.47
2024-01-07T06:06:20.248Z,99146.66
2024-01-07T06:08:58.784Z,99151.63
2024-01-07T06:11:37.563Z,99153.25
2024-01-07T06:14:11.139Z,99155.63
2024-01-07T06:16:44.420Z,99157.44
2024-01-07T06:19:25.498Z,99157.75
2024-01-07T06:22:02.666Z,99158.25
2024-01-07T06:24:38.567Z,99154.69
2024-01-07T06:27:11.562Z,99160.78
2024-01-07T06:29:47.556Z,99164.00
2024-01-07T06:32:15.452Z,99159.19
2024-01-07T06:34:53.773Z,99169.25
2024-01-07T06:37:30.153Z,99175.34
2024-01-07T06:40:06.201Z,99176.44
2024-01-07T06:42:39.246Z,99181.56
2024-01-07T06:45:21.634Z,99186.03
2024-01-07T06:47:57.919Z,99188.00
2024-01-07T06:50:36.260Z,99187.66
2024-01-07T06:53:11.869Z,99190.06
2024-01-07T06:55:51.633Z,99200.97
2024-01-07T06:58:33.547Z,99204.72
2024-01-07T07:01:11.431Z,99209.91
2024-01-07T07:03:47.155Z,99210.22
2024-01-07T07:06:20.103Z,99214.63
2024-01-07T07:08:56.326Z,99217.44
2024-01-07T07:11:30.730Z,99229.53
2024-01-07T07:14:12.733Z,99217.88
2024-01-07T07:16:43.476Z,99226.72
2024-01-07T07:19:19.098Z,99229.53
2024-01-07T07:21:49.817Z,99232.84
2024-01-07T07:24:25.865Z,99242.06
2024-01-07T07:27:05.001Z,99242.81
2024-01-07T07:29:47.102Z,99244.28
2024-01-07T07:32:22.983Z,99254.78
2024-01-07T07:35:04.502Z,99250.78
2024-01-07T07:37:43.584Z,99251.63
2024-01-07T07:40:20.498Z,99255.19
2024-01-07T07:42:56.703Z,99261.72
2024-01-07T07:45:35.841Z,99267.47
2024-01-07T07:48:08.982Z,99265.44
2024-01-07T07:50:37.734Z,99265.44
2024-01-07T07:53:10.681Z,99267.59
2024-01-07T07:55:44.738Z,99266.78
2024-01-07T07:58:24.622Z,99271.69
2024-01-07T08:01:01.218Z,99272.59
2024-01-07T08:03:34.821Z,99274.59
2024-01-07T08:06:07.624Z,99278.59
2024-01-07T08:08:41.955Z,99281.47
2024-01-07T08:11:17.433Z,99286.28
2024-01-07T08:13:56.444Z,99279.91
2024-01-07T08:16:27.217Z,99279.44
2024-01-07T08:19:08.796Z,99282.16
2024-01-07T08:21:46.585Z,99284.19
2024-01-07T08:24:26.037Z,99288.22
2024-01-07T08:27:05.718Z,99293.50
2024-01-07T08:29:44.189Z,99296.72
2024-01-07T08:32:20.817Z,99296.34
2024-01-07T08:35:00.403Z,99297.50
2024-01-07T08:37:35.939Z,99300.34
2024-01-07T08:40:15.402Z,99298.44
2024-01-07T08:42:48.404Z,99312.94
2024-01-07T08:45:25.084Z,99308.06
2024-01-07T08:47:55.856Z,99303.91
2024-01-07T08:50:34.549Z,99313.94
2024-01-07T08:53:06.125Z,99309.94
2024-01-07T08:55:37.039Z,99317.31
2024-01-07T08:58:10.868Z,99318.97
2024-01-07T09:00:45.360Z,99316.94
2024-01-07T09:03:21.274Z,99323.72
2024-01-07T09:05:57.338Z,99320.56
2024-01-07T09:08:33.620Z,99326.47
2024-01-07T09:11:15.497Z,99339.66
2024-01-07T09:13:52.469Z,99337.59
2024-01-07T09:16:36.105Z,99336.38
2024-01-07T09:19:04.338Z,99342.75
2024-01-07T09:21:40.612Z,99340.31
2024-01-07T09:24:14.492Z,99337.88
2024-01-07T09:26:48.040Z,99349.97
2024-01-07T09:29:23.950Z,99347.09
2024-01-07T09:32:00.748Z,99341.38
2024-01-07T09:34:41.072Z,99340.22
2024-01-07T09:37:21.150Z,99348.50
2024-01-07T09:39:54.402Z,99340.81
2024-01-07T09:42:27.633Z,99341.66
2024-01-07T09:44:57.359Z,99337.72
2024-01-07T09:47:28.906Z,99352.19
2024-01-07T09:50:11.291Z,99341.78
2024-01-07T09:52:47.994Z,99352.22
2024-01-07T09:55:31.283Z,99350.41
2024-01-07T09:58:07.467Z,99350.22
2024-01-07T10:00:49.000Z,99351.41
2024-01-07T10:03:25.865Z,99354.50
2024-01-07T10:06:06.879Z,99351.47
2024-01-07T10:08:40.527Z,99349.19
2024-01-07T10:11:13.922Z,99344.78
2024-01-07T10:13:52.706Z,99355.34
2024-01-07T10:16:34.131Z,99351.72
2024-01-07T10:19:12.947Z,99349.28
2024-01-07T10:21:48.305Z,99349.69
2024-01-07T10:24:27.319Z,99352.56
2024-01-07T10:27:01.113Z,99346.41
2024-01-07T10:29:33.910Z,99346.44
2024-01-07T10:32:07.607Z,99346.88
2024-01-07T10:34:41.649Z,99348.91
2024-01-07T10:37:14.250Z,99336.09
2024-01-07T10:39:50.266Z,99341.38
2024-01-07T10:42:35.655Z,99342.97
2024-01-07T10:45:16.143Z,99351.44
2024-01-07T10:47:54.661Z,99343.75
2024-01-07T10:50:28.085Z,99352.09
2024-01-07T10:53:08.872Z,99332.00
2024-01-07T10:55:57.656Z,99342.50
2024-01-07T10:58:36.635Z,99340.50
2024-01-07T11:01:16.454Z,99350.19
2024-01-07T11:03:56.668Z,99330.97
2024-01-07T11:06:52.069Z,99333.75
2024-01-07T11:09:34.975Z,99334.63
2024-01-07T11:12:08.827Z,99324.88
2024-01-07T11:14:54.090Z,99320.00
2024-01-07T11:17:37.135Z,99310.38
2024-01-07T11:20:30.084Z,99319.22
2024-01-07T11:23:30.526Z,99306.41
2024-01-07T11:26:04.748Z,99312.81
2024-01-07T11:28:57.914Z,99296.72
2024-01-07T11:31:40.925Z,99305.56
2024-01-07T11:34:42.945Z,99296.59
2024-01-07T11:37:18.295Z,99294.63
2024-01-07T11:39:52.877Z,99289.88
2024-01-07T11:42:33.724Z,99289.50
2024-01-07T11:45:12.152Z,99305.66
2024-01-07T11:47:40.287Z,99300.00
2024-01-07T11:50:16.201Z,99294.34
2024-01-07T11:52:50.322Z,99293.97
2024-01-07T11:55:26.706Z,99302.72
2024-01-07T11:57:57.880Z,99293.81
2024-01-07T12:00:34.572Z,99294.25
2024-01-07T12:03:14.107Z,99296.34
2024-01-07T12:05:49.084Z,99295.94
2024-01-07T12:08:23.114Z,99288.78
2024-01-07T12:11:03.165Z,99286.78
2024-01-07T12:13:38.335Z,99294.09
2024-01-07T12:16:14.838Z,99289.41
2024-01-07T12:18:46.260Z,99293.81
2024-01-07T12:21:26.188Z,99290.69
2024-01-07T12:24:01.094Z,99283.84
2024-01-07T12:26:38.834Z,99290.69
2024-01-07T12:29:13.732Z,99285.09
2024-01-07T12:31:45.945Z,99279.16
2024-01-07T12:34:21.265Z,99281.56
2024-01-07T12:36:55.966Z,99289.53
2024-01-07T12:39:28.317Z,99285.81
2024-01-07T12:42:09.265Z,99290.25
2024-01-07T12:44:52.570Z,99282.25
2024-01-07T12:47:26.625Z,99287.53
2024-01-07T12:49:59.914Z,99286.34
2024-01-07T12:52:36.945Z,99276.34
2024-01-07T12:55:06.163Z,99289.22
2024-01-07T12:57:43.995Z,99283.59
2024-01-07T13:00:17.412Z,99284.78
2024-01-07T13:02:53.315Z,99283.06
2024-01-07T13:05:27.415Z,99286.72
2024-01-07T13:08:03.484Z,99284.75
2024-01-07T13:10:39.670Z,99290.78
2024-01-07T13:13:18.980Z,99300.00
2024-01-07T13:15:46.874Z,99299.28
2024-01-07T13:18:18.932Z,99309.00
2024-01-07T13:20:54.825Z,99304.09
2024-01-07T13:23:34.196Z,99310.03
2024-01-07T13:26:07.705Z,99313.63
2024-01-07T13:28:43.658Z,99304.81
2024-01-07T13:31:25.466Z,99320.94
2024-01-07T13:33:56.179Z,99317.75
2024-01-07T13:36:32.043Z,99314.13
2024-01-07T13:39:03.095Z,99316.19
2024-01-07T13:41:39.963Z,99306.56
2024-01-07T13:44:20.238Z,99311.38
2024-01-07T13:46:53.487Z,99320.13
2024-01-07T13:49:22.388Z,99317.31
2024-01-07T13:51:58.362Z,99323.22
2024-01-07T13:54:35.875Z,99324.56
2024-01-07T13:57:17.265Z,99325.78
2024-01-07T13:59:53.607Z,99330.66
2024-01-07T14:02:30.244Z,99330.66
2024-01-07T14:05:04.529Z,99339.53
2024-01-07T14:07:38.426Z,99337.84
2024-01-07T14:10:12.423Z,99345.41
2024-01-07T14:12:49.136Z,99351.53
2024-01-07T14:15:27.574Z,99345.13
2024-01-07T14:18:06.289Z,99343.50
2024-01-07T14:20:34.058Z,99335.94
2024-01-07T14:23:05.895Z,99345.59
2024-01-07T14:25:42.987Z,99346.78
2024-01-07T14:28:20.404Z,99357.19
2024-01-07T14:30:59.523Z,99363.91
2024-01-07T14:33:31.485Z,99362.31
2024-01-07T14:36:05.740Z,99358.34
2024-01-07T14:38:36.571Z,99362.41
2024-01-07T14:41:08.499Z,99370.00
2024-01-07T14:43:43.373Z,99382.16
2024-01-07T14:46:21.980Z,99399.81
2024-01-07T14:49:01.229Z,99384.91
2024-01-07T14:51:45.336Z,99378.75
2024-01-07T14:54:23.979Z,99390.78
2024-01-07T14:56:59.866Z,99384.75
2024-01-07T14:59:31.758Z,99389.34
2024-01-07T15:02:05.782Z,99384.88
2024-01-07T15:04:42.487Z,99398.13
2024-01-07T15:07:14.739Z,99400.66
2024-01-07T15:09:45.661Z,99397.03
2024-01-07T15:12:23.742Z,99394.94
2024-01-07T15:15:02.515Z,99395.25
2024-01-07T15:17:36.991Z,99394.47
2024-01-07T15:20:11.932Z,99388.38
2024-01-07T15:22:45.051Z,99391.66
2024-01-07T15:25:22.401Z,99394.91
2024-01-07T15:27:56.371Z,99393.69
2024-01-07T15:30:44.096Z,99399.03
2024-01-07T15:33:23.357Z,99402.22
2024-01-07T15:36:00.074Z,99407.44
2024-01-07T15:38:39.339Z,99396.88
2024-01-07T15:41:18.141Z,99398.84
2024-01-07T15:43:51.356Z,99396.50
2024-01-07T15:46:25.328Z,99396.06
2024-01-07T15:49:06.799Z,99408.63
2024-01-07T15:51:50.317Z,99401.38
2024-01-07T15:54:23.669Z,99401.47
2024-01-07T15:56:59.962Z,99409.06
2024-01-07T15:59:34.067Z,99407.75
2024-01-07T16:02:04.682Z,99405.78
2024-01-07T16:04:38.683Z,99411.78
2024-01-07T16:07:14.031Z,99409.81
2024-01-07T16:09:44.503Z,99415.09
2024-01-07T16:12:19.674Z,99415.88
2024-01-07T16:15:00.958Z,99414.25
2024-01-07T16:17:37.256Z,99416.31
2024-01-07T16:20:14.634Z,99420.41
2024-01-07T16:22:47.981Z,99423.59
2024-01-07T16:25:29.398Z,99425.06
2024-01-07T16:28:07.449Z,99429.50
2024-01-07T16:30:40.767Z,99427.09
2024-01-07T16:33:14.031Z,99445.19
2024-01-07T16:35:49.421Z,99438.81
2024-01-07T16:38:24.748Z,99442.81
2024-01-07T16:40:59.941Z,99445.66
2024-01-07T16:43:38.750Z,99451.75
2024-01-07T16:46:16.178Z,99455.34
2024-01-07T16:51:23.269Z,99447.19
2024-01-07T16:53:57.182Z,99453.53
2024-01-07T16:56:30.730Z,99452.81
2024-01-07T16:59:04.252Z,99452.44
2024-01-07T17:01:40.670Z,99454.41
2024-01-07T17:04:14.176Z,99462.09
2024-01-07T17:06:53.114Z,99458.94
2024-01-07T17:09:34.694Z,99467.41
2024-01-07T17:12:11.688Z,99469.44
2024-01-07T17:14:47.417Z,99478.59
2024-01-07T17:17:21.290Z,99476.09
2024-01-07T17:19:58.422Z,99478.88
2024-01-07T17:22:31.747Z,99475.69
2024-01-07T17:25:05.997Z,99474.56
2024-01-07T17:27:41.818Z,99477.00
2024-01-07T17:30:14.566Z,99477.41
2024-01-07T17:32:49.387Z,99484.31
2024-01-07T17:35:31.945Z,99485.09
2024-01-07T17:38:08.954Z,99486.69
2024-01-07T17:40:43.267Z,99489.78
2024-01-07T17:43:16.869Z,99491.38
2024-01-07T17:45:47.128Z,99492.16
2024-01-07T17:48:29.655Z,99497.84
2024-01-07T17:51:10.114Z,99497.44
2024-01-07T17:53:44.173Z,99499.91
2024-01-07T17:56:25.523Z,99492.34
2024-01-07T17:58:59.658Z,99506.06
2024-01-07T18:01:37.768Z,99507.56
2024-01-07T18:04:15.080Z,99506.72
2024-01-07T18:06:50.963Z,99503.84
2024-01-07T18:09:31.131Z,99504.28
2024-01-07T18:12:13.413Z,99507.09
2024-01-07T18:14:51.740Z,99505.13
2024-01-07T18:17:28.532Z,99503.97
2024-01-07T18:20:08.584Z,99505.56
2024-01-07T18:22:45.980Z,99501.97
2024-01-07T18:25:25.360Z,99510.34
2024-01-07T18:27:59.601Z,99501.88
2024-01-07T18:30:40.235Z,99499.03
2024-01-07T18:33:13.592Z,99505.06
2024-01-07T18:35:52.304Z,99511.56
2024-01-07T18:38:28.657Z,99506.38
2024-01-07T18:41:04.612Z,99513.25
2024-01-07T18:43:32.977Z,99519.69
2024-01-07T18:46:17.180Z,99525.31
2024-01-07T18:48:52.868Z,99523.16
2024-01-07T18:51:29.804Z,99529.97
2024-01-07T18:54:08.592Z,99525.97
2024-01-07T18:56:44.949Z,99548.13
2024-01-07T18:59:24.571Z,99550.22
2024-01-07T19:02:01.094Z,99546.16
2024-01-07T19:04:33.139Z,99557.47
2024-01-07T19:07:06.714Z,99564.69
2024-01-07T19:09:40.867Z,99564.28
2024-01-07T19:12:18.917Z,99563.06
2024-01-07T19:14:58.708Z,99566.22
2024-01-07T19:17:33.395Z,99573.09
2024-01-07T19:20:12.570Z,99577.91
2024-01-07T19:22:48.957Z,99588.03
2024-01-07T19:25:22.298Z,99591.66
2024-01-07T19:27:56.060Z,99597.31
2024-01-07T19:30:34.156Z,99594.47
2024-01-07T19:33:05.349Z,99592.47
2024-01-07T19:35:38.923Z,99598.81
2024-01-07T19:38:12.111Z,99605.66
2024-01-07T19:40:47.732Z,99602.84
2024-01-07T19:43:23.605Z,99606.47
2024-01-07T19:46:00.392Z,99612.94
2024-01-07T19:48:39.545Z,99618.16
2024-01-07T19:51:11.736Z,99617.41
2024-01-07T19:53:45.167Z,99625.44
2024-01-07T19:56:21.722Z,99623.47
2024-01-07T19:59:03.584Z,99624.28
2024-01-07T20:01:33.899Z,99627.44
2024-01-07T20:04:18.858Z,99628.97
2024-01-07T20:06:52.377Z,99638.66
2024-01-07T20:09:33.885Z,99637.47
2024-01-07T20:12:19.403Z,99646.31
2024-01-07T20:15:04.107Z,99653.16
2024-01-07T20:17:37.608Z,99651.56
2024-01-07T20:20:16.282Z,99650.78
2024-01-07T20:22:47.987Z,99648.34
2024-01-07T20:25:16.786Z,99662.78
2024-01-07T20:27:51.880Z,99659.16
2024-01-07T20:30:28.650Z,99668.03
2024-01-07T20:33:02.467Z,99665.22
2024-01-07T20:35:34.032Z,99668.03
2024-01-07T20:38:08.214Z,99674.09
2024-01-07T20:40:42.792Z,99669.66
2024-01-07T20:43:31.862Z,99676.06
2024-01-07T20:46:12.352Z,99677.72
2024-01-07T20:48:49.134Z,99672.50
2024-01-07T20:51:22.745Z,99677.28
2024-01-07T20:54:04.632Z,99682.50
2024-01-07T20:56:34.762Z,99677.28
2024-01-07T20:59:08.324Z,99681.28
2024-01-07T21:01:41.718Z,99676.91
2024-01-07T21:04:20.854Z,99678.09
2024-01-07T21:07:00.067Z,99677.31
2024-01-07T21:09:42.850Z,99693.41
2024-01-07T21:12:16.039Z,99690.19
2024-01-07T21:14:46.512Z,99693.00
2024-01-07T21:17:24.947Z,99704.28
2024-01-07T21:19:55.988Z,99714.69
2024-01-07T21:22:35.046Z,99714.28
2024-01-07T21:25:08.796Z,99711.06
2024-01-07T21:27:41.484Z,99723.16
2024-01-07T21:30:21.181Z,99725.97
2024-01-07T21:32:53.413Z,99736.44
2024-01-07T21:35:37.537Z,99728.81
2024-01-07T21:38:08.331Z,99736.06
2024-01-07T21:40:41.316Z,99734.84
2024-01-07T21:43:17.894Z,99736.06
2024-01-07T21:45:50.029Z,99739.25
2024-01-07T21:48:22.114Z,99732.81
2024-01-07T21:50:55.243Z,99744.06
2024-01-07T21:53:28.794Z,99737.63
2024-01-07T21:56:08.266Z,99736.84
2024-01-07T21:58:39.574Z,99736.06
2024-01-07T22:01:15.863Z,99736.06
2024-01-07T22:03:47.347Z,99730.03
2024-01-07T22:06:15.647Z,99738.47
2024-01-07T22:08:52.179Z,99742.41
2024-01-07T22:11:33.733Z,99736.78
2024-01-07T22:14:15.306Z,99752.50
2024-01-07T22:16:51.149Z,99747.28
2024-01-07T22:19:27.069Z,99747.69
2024-01-07T22:22:00.283Z,99758.16
2024-01-07T22:24:33.585Z,99765.00
2024-01-07T22:27:11.515Z,99765.00
2024-01-07T22:29:48.032Z,99763.81
2024-01-07T22:32:15.937Z,99771.88
2024-01-07T22:34:52.042Z,99772.63
2024-01-07T22:37:21.448Z,99766.97
2024-01-07T22:39:57.982Z,99766.59
2024-01-07T22:42:33.766Z,99776.66
2024-01-07T22:45:10.865Z,99780.66
2024-01-07T22:47:52.425Z,99783.91
2024-01-07T22:50:35.517Z,99785.94
2024-01-07T22:53:08.794Z,99784.75
2024-01-07T22:55:47.423Z,99789.56
2024-01-07T22:58:26.154Z,99790.34
2024-01-07T23:01:03.034Z,99795.94
2024-01-07T23:03:39.516Z,99798.75
2024-01-07T23:06:11.256Z,99806.00
2024-01-07T23:08:49.895Z,99803.59
2024-01-07T23:11:22.899Z,99806.03
2024-01-07T23:14:02.483Z,99801.22
2024-01-07T23:16:37.378Z,99806.03
2024-01-07T23:19:13.222Z,99804.03
2024-01-07T23:21:47.943Z,99807.66
2024-01-07T23:24:26.751Z,99813.28
2024-01-07T23:26:57.488Z,99802.78
2024-01-07T23:29:30.581Z,99807.22
2024-01-07T23:32:05.409Z,99806.44
2024-01-07T23:34:38.700Z,99798.78
2024-01-07T23:37:21.478Z,99812.88
2024-01-07T23:40:01.081Z,99801.63
2024-01-07T23:42:39.968Z,99798.78
2024-01-07T23:45:19.264Z,99798.00
2024-01-07T23:47:53.303Z,99806.03
2024-01-07T23:50:28.922Z,99799.59
2024-01-07T23:52:59.494Z,99801.19
2024-01-07T23:55:30.978Z,99799.22
2024-01-07T23:58:12.373Z,99806.03
